Time;durP1;ratioP1;P1;durP2;ratioP2;P2;SDS_P1;SDS_P2;PMS_P1;PMS_P2;Temp;Humidity;BMP_temperature;BMP_pressure;BME280_temperature;BME280_humidity;BME280_pressure;Samples;Min_cycle;Max_cycle;Signal;HPM_P1;HPM_P2
2022/08/13 00:01:15;;;;;;;3.83;2.88;;;;;;;;;;5016125;28;20769;-51
2022/08/13 00:03:43;;;;;;;3.28;2.97;;;;;;;;;;5017375;28;20234;-51
2022/08/13 00:06:11;;;;;;;3.65;2.72;;;;;;;;;;5013518;28;20298;-51
2022/08/13 00:08:39;;;;;;;3.55;2.70;;;;;;;;;;5019432;28;20236;-51
2022/08/13 00:11:06;;;;;;;4.43;3.30;;;;;;;;;;5020396;28;20651;-52
2022/08/13 00:13:31;;;;;;;4.95;3.08;;;;;;;;;;5012051;28;20243;-51
2022/08/13 00:15:59;;;;;;;2.65;2.45;;;;;;;;;;5017783;28;20237;-52
2022/08/13 00:18:26;;;;;;;4.88;3.28;;;;;;;;;;5019486;28;20228;-51
2022/08/13 00:20:54;;;;;;;4.80;2.72;;;;;;;;;;5019998;28;20228;-51
2022/08/13 00:23:22;;;;;;;4.53;3.15;;;;;;;;;;5020485;28;20232;-51
2022/08/13 00:25:50;;;;;;;5.00;2.90;;;;;;;;;;5016619;28;20404;-52
2022/08/13 00:28:18;;;;;;;4.63;3.17;;;;;;;;;;5018948;28;20578;-52
2022/08/13 00:30:46;;;;;;;4.78;2.95;;;;;;;;;;5019785;28;20240;-51
2022/08/13 00:33:15;;;;;;;4.50;2.80;;;;;;;;;;5018508;28;20267;-52
2022/08/13 00:35:42;;;;;;;6.90;2.97;;;;;;;;;;5018637;28;20725;-51
2022/08/13 00:38:11;;;;;;;6.82;3.50;;;;;;;;;;5022438;28;20306;-51
2022/08/13 00:40:41;;;;;;;3.85;3.03;;;;;;;;;;5020927;28;20256;-51
2022/08/13 00:43:07;;;;;;;4.63;3.03;;;;;;;;;;5020931;28;20260;-51
2022/08/13 00:45:34;;;;;;;4.13;3.35;;;;;;;;;;5022166;28;20232;-52
2022/08/13 00:50:44;;;;;;;5.40;3.17;;;;;;;;;;5018437;28;20278;-52
2022/08/13 00:53:17;;;;;;;4.63;3.30;;;;;;;;;;5021741;28;20232;-51
2022/08/13 00:55:45;;;;;;;2.88;2.60;;;;;;;;;;5022566;28;20331;-51
2022/08/13 00:58:16;;;;;;;4.10;2.92;;;;;;;;;;5025162;28;20319;-51
2022/08/13 01:00:43;;;;;;;7.63;3.53;;;;;;;;;;5025372;28;20463;-51
2022/08/13 01:03:10;;;;;;;3.30;3.00;;;;;;;;;;5025816;28;20259;-56
2022/08/13 01:05:36;;;;;;;5.93;3.42;;;;;;;;;;5026248;28;20240;-52
2022/08/13 01:08:03;;;;;;;3.95;2.90;;;;;;;;;;5025712;28;20228;-50
2022/08/13 01:10:32;;;;;;;4.78;3.63;;;;;;;;;;5029646;28;20228;-51
2022/08/13 01:12:58;;;;;;;3.30;2.97;;;;;;;;;;5024860;28;20315;-52
2022/08/13 01:15:26;;;;;;;4.38;2.65;;;;;;;;;;5026843;28;20246;-51
2022/08/13 01:17:54;;;;;;;6.80;3.42;;;;;;;;;;5023646;28;20236;-52
2022/08/13 01:20:21;;;;;;;3.90;3.50;;;;;;;;;;5024794;28;20234;-52
2022/08/13 01:22:52;;;;;;;2.90;2.67;;;;;;;;;;5026316;28;20259;-51
2022/08/13 01:25:19;;;;;;;3.38;2.97;;;;;;;;;;5024470;28;20225;-52
2022/08/13 01:27:46;;;;;;;2.97;2.70;;;;;;;;;;5023656;28;20224;-51
2022/08/13 01:30:15;;;;;;;3.35;2.92;;;;;;;;;;5021059;28;20240;-51
2022/08/13 01:32:43;;;;;;;5.97;3.15;;;;;;;;;;5023472;28;20706;-52
2022/08/13 01:35:09;;;;;;;3.92;2.95;;;;;;;;;;5024286;28;20248;-51
2022/08/13 01:37:37;;;;;;;3.70;2.78;;;;;;;;;;5024865;28;20231;-51
2022/08/13 01:40:06;;;;;;;2.97;2.72;;;;;;;;;;5024321;28;20291;-52
2022/08/13 01:42:37;;;;;;;3.97;3.10;;;;;;;;;;5024845;28;20248;-52
2022/08/13 01:45:04;;;;;;;3.90;3.45;;;;;;;;;;5024056;28;20320;-51
2022/08/13 01:50:29;;;;;;;3.70;3.40;;;;;;;;;;5025440;28;20293;-51
2022/08/13 01:53:01;;;;;;;3.30;3.00;;;;;;;;;;5024609;28;20239;-52
2022/08/13 01:55:37;;;;;;;5.25;3.60;;;;;;;;;;5024894;28;20233;-52
2022/08/13 01:58:04;;;;;;;4.32;3.03;;;;;;;;;;5023664;28;20244;-51
2022/08/13 02:00:30;;;;;;;4.03;2.95;;;;;;;;;;5023315;28;20232;-52
2022/08/13 02:02:59;;;;;;;3.83;3.50;;;;;;;;;;5025590;28;20792;-51
2022/08/13 02:05:26;;;;;;;5.75;2.97;;;;;;;;;;5022770;28;20237;-52
2022/08/13 02:07:52;;;;;;;7.55;3.20;;;;;;;;;;5022859;28;20666;-51
2022/08/13 02:10:20;;;;;;;4.15;3.28;;;;;;;;;;5023662;28;20237;-51
2022/08/13 02:12:48;;;;;;;3.28;2.92;;;;;;;;;;5023997;28;20872;-51
2022/08/13 02:15:16;;;;;;;4.47;3.67;;;;;;;;;;5022436;28;20259;-51
2022/08/13 02:17:42;;;;;;;7.15;3.70;;;;;;;;;;5023266;28;20306;-53
2022/08/13 02:20:11;;;;;;;6.15;2.70;;;;;;;;;;5023107;28;20331;-52
2022/08/13 02:22:38;;;;;;;4.80;3.47;;;;;;;;;;5024130;28;20224;-54
2022/08/13 02:25:05;;;;;;;4.30;3.63;;;;;;;;;;5023421;28;20229;-53
2022/08/13 02:27:31;;;;;;;4.47;2.92;;;;;;;;;;5021173;28;20737;-52
2022/08/13 02:29:59;;;;;;;4.28;3.60;;;;;;;;;;5024801;28;20433;-52
2022/08/13 02:32:26;;;;;;;4.47;3.70;;;;;;;;;;5024896;28;20236;-51
2022/08/13 02:34:54;;;;;;;5.47;3.47;;;;;;;;;;5020484;28;20240;-54
2022/08/13 02:37:21;;;;;;;4.15;3.08;;;;;;;;;;5023094;28;20682;-54
2022/08/13 02:39:48;;;;;;;4.75;3.22;;;;;;;;;;5024609;28;20268;-51
2022/08/13 02:42:13;;;;;;;6.03;3.05;;;;;;;;;;5022386;28;20355;-52
2022/08/13 02:44:40;;;;;;;4.68;3.20;;;;;;;;;;5023683;28;20248;-52
2022/08/13 02:47:08;;;;;;;7.30;3.28;;;;;;;;;;5023581;28;20593;-52
2022/08/13 02:49:36;;;;;;;3.72;3.13;;;;;;;;;;5023289;28;20228;-52
2022/08/13 02:52:04;;;;;;;4.15;3.20;;;;;;;;;;5019523;28;20650;-51
2022/08/13 02:54:32;;;;;;;4.15;3.42;;;;;;;;;;5025280;28;20231;-52
2022/08/13 02:57:01;;;;;;;4.53;3.08;;;;;;;;;;5019716;28;20718;-52
2022/08/13 02:59:27;;;;;;;3.67;3.28;;;;;;;;;;5020339;28;20515;-52
2022/08/13 03:01:54;;;;;;;5.75;3.08;;;;;;;;;;5018113;28;20319;-52
2022/08/13 03:04:22;;;;;;;6.55;3.88;;;;;;;;;;5020649;28;20233;-53
2022/08/13 03:06:49;;;;;;;3.25;2.95;;;;;;;;;;5017316;28;20887;-52
2022/08/13 03:09:16;;;;;;;3.60;3.30;;;;;;;;;;5023724;28;20236;-51
2022/08/13 03:11:43;;;;;;;4.55;2.70;;;;;;;;;;5022991;28;20254;-52
2022/08/13 03:14:10;;;;;;;3.42;3.13;;;;;;;;;;5023938;28;20233;-51
2022/08/13 03:16:39;;;;;;;5.65;3.42;;;;;;;;;;5021017;28;20236;-52
2022/08/13 03:19:06;;;;;;;4.97;3.65;;;;;;;;;;5022099;28;20240;-52
2022/08/13 03:21:35;;;;;;;5.07;3.45;;;;;;;;;;5023875;28;20241;-52
2022/08/13 03:24:03;;;;;;;6.28;3.92;;;;;;;;;;5025041;28;20326;-53
2022/08/13 03:26:30;;;;;;;3.72;3.42;;;;;;;;;;5022670;28;20260;-51
2022/08/13 03:28:56;;;;;;;5.05;3.50;;;;;;;;;;5022155;28;20241;-52
2022/08/13 03:31:23;;;;;;;4.10;3.72;;;;;;;;;;5023560;28;20263;-52
2022/08/13 03:33:50;;;;;;;5.78;3.85;;;;;;;;;;5023246;28;20228;-52
2022/08/13 03:36:17;;;;;;;3.72;3.28;;;;;;;;;;5022475;28;20416;-52
2022/08/13 03:38:45;;;;;;;3.83;3.53;;;;;;;;;;5022665;28;20228;-53
2022/08/13 03:41:12;;;;;;;3.25;3.05;;;;;;;;;;5020776;28;20784;-51
2022/08/13 03:43:42;;;;;;;5.25;3.65;;;;;;;;;;5022116;28;20251;-52
2022/08/13 03:46:09;;;;;;;5.68;3.33;;;;;;;;;;5022202;28;20236;-51
2022/08/13 03:48:35;;;;;;;5.72;3.53;;;;;;;;;;5023712;28;20256;-51
2022/08/13 03:51:02;;;;;;;4.38;3.30;;;;;;;;;;5022289;28;20233;-52
2022/08/13 03:53:29;;;;;;;5.65;3.63;;;;;;;;;;5021938;28;20255;-52
2022/08/13 03:55:58;;;;;;;8.38;3.92;;;;;;;;;;5020860;28;20236;-52
2022/08/13 03:58:26;;;;;;;4.78;3.53;;;;;;;;;;5023915;28;20319;-50
2022/08/13 04:00:53;;;;;;;8.23;3.33;;;;;;;;;;5023035;28;20917;-51
2022/08/13 04:03:20;;;;;;;3.88;3.58;;;;;;;;;;5021693;28;20271;-51
2022/08/13 04:05:47;;;;;;;3.75;3.38;;;;;;;;;;5024044;28;20303;-51
2022/08/13 04:08:13;;;;;;;7.15;3.63;;;;;;;;;;5022582;28;20244;-51
2022/08/13 04:10:40;;;;;;;4.32;3.28;;;;;;;;;;5019368;28;20264;-53
2022/08/13 04:13:12;;;;;;;4.53;3.22;;;;;;;;;;5020205;28;20355;-53
2022/08/13 04:15:42;;;;;;;6.75;4.35;;;;;;;;;;5021212;28;20256;-51
2022/08/13 04:18:09;;;;;;;3.33;3.08;;;;;;;;;;5021709;28;20240;-51
2022/08/13 04:20:37;;;;;;;3.63;3.33;;;;;;;;;;5022981;28;20239;-51
2022/08/13 04:23:09;;;;;;;4.47;3.78;;;;;;;;;;5021389;28;20306;-52
2022/08/13 04:25:36;;;;;;;5.25;3.30;;;;;;;;;;5019481;28;20297;-50
2022/08/13 04:28:02;;;;;;;5.30;3.65;;;;;;;;;;5023145;28;20236;-52
2022/08/13 04:30:30;;;;;;;3.55;3.25;;;;;;;;;;5019842;28;21038;-50
2022/08/13 04:32:59;;;;;;;5.35;3.47;;;;;;;;;;5023248;28;20236;-51
2022/08/13 04:35:25;;;;;;;3.42;2.90;;;;;;;;;;5021171;28;20290;-51
2022/08/13 04:37:56;;;;;;;4.13;3.08;;;;;;;;;;5022944;28;20236;-51
2022/08/13 04:40:22;;;;;;;7.55;3.63;;;;;;;;;;5021288;28;20235;-50
2022/08/13 04:42:49;;;;;;;4.68;3.78;;;;;;;;;;5024204;28;20229;-50
2022/08/13 04:45:16;;;;;;;3.65;3.35;;;;;;;;;;5019617;28;20237;-50
2022/08/13 04:47:44;;;;;;;6.15;3.38;;;;;;;;;;5020747;28;20232;-51
2022/08/13 04:50:11;;;;;;;5.10;3.55;;;;;;;;;;5033868;22;20263;-56
2022/08/13 04:52:37;;;;;;;6.75;4.18;;;;;;;;;;5023253;28;20228;-57
2022/08/13 04:55:04;;;;;;;6.55;4.05;;;;;;;;;;5021455;28;20272;-56
2022/08/13 04:57:30;;;;;;;6.70;3.55;;;;;;;;;;5019247;28;20286;-56
2022/08/13 04:59:56;;;;;;;5.15;3.55;;;;;;;;;;5021842;28;20244;-56
2022/08/13 05:02:23;;;;;;;3.80;3.50;;;;;;;;;;5022840;28;20235;-56
2022/08/13 05:04:52;;;;;;;4.65;3.50;;;;;;;;;;5020740;28;20260;-56
2022/08/13 05:07:18;;;;;;;6.57;3.85;;;;;;;;;;5021642;28;20668;-56
2022/08/13 05:09:45;;;;;;;4.47;3.78;;;;;;;;;;5019508;28;20236;-56
2022/08/13 05:12:11;;;;;;;3.85;3.55;;;;;;;;;;5020596;28;20236;-57
2022/08/13 05:14:37;;;;;;;8.75;4.40;;;;;;;;;;5020702;28;20279;-56
2022/08/13 05:17:04;;;;;;;5.15;4.00;;;;;;;;;;5020167;28;20236;-57
2022/08/13 05:19:30;;;;;;;3.53;3.25;;;;;;;;;;5019201;28;20233;-57
2022/08/13 05:21:58;;;;;;;5.70;3.58;;;;;;;;;;5020960;28;20236;-57
2022/08/13 05:24:25;;;;;;;5.32;3.55;;;;;;;;;;5021496;28;20229;-57
2022/08/13 05:26:52;;;;;;;4.85;4.45;;;;;;;;;;5018408;28;20232;-57
2022/08/13 05:29:19;;;;;;;4.70;4.22;;;;;;;;;;5023532;28;20228;-57
2022/08/13 05:31:46;;;;;;;4.63;4.20;;;;;;;;;;5020991;28;20602;-58
2022/08/13 05:34:13;;;;;;;4.53;4.13;;;;;;;;;;5020536;28;20232;-57
2022/08/13 05:36:45;;;;;;;4.20;3.80;;;;;;;;;;5022605;28;20611;-57
2022/08/13 05:39:13;;;;;;;5.53;4.03;;;;;;;;;;5019423;28;20232;-57
2022/08/13 05:41:40;;;;;;;3.58;3.28;;;;;;;;;;5022220;28;20245;-56
2022/08/13 05:44:06;;;;;;;8.50;4.03;;;;;;;;;;5025509;28;20723;-57
2022/08/13 05:46:32;;;;;;;4.50;4.10;;;;;;;;;;5023312;28;20236;-56
2022/08/13 05:48:59;;;;;;;5.55;3.70;;;;;;;;;;5025209;28;20247;-56
2022/08/13 05:51:26;;;;;;;5.93;4.22;;;;;;;;;;5019312;28;20233;-56
2022/08/13 05:53:54;;;;;;;4.10;3.72;;;;;;;;;;5021111;28;20225;-56
2022/08/13 05:56:22;;;;;;;7.07;3.90;;;;;;;;;;5022945;28;20233;-56
2022/08/13 05:58:49;;;;;;;4.40;3.97;;;;;;;;;;5021918;28;20236;-57
2022/08/13 06:04:00;;;;;;;5.65;4.35;;;;;;;;;;5024228;28;20243;-56
2022/08/13 06:06:28;;;;;;;5.13;4.15;;;;;;;;;;5019427;28;20711;-56
2022/08/13 06:08:59;;;;;;;6.80;4.10;;;;;;;;;;5024509;28;20240;-57
2022/08/13 06:11:27;;;;;;;4.38;3.88;;;;;;;;;;5025051;28;20235;-56
2022/08/13 06:13:54;;;;;;;4.75;3.72;;;;;;;;;;5022843;28;20578;-56
2022/08/13 06:16:21;;;;;;;7.60;3.80;;;;;;;;;;5019694;28;20244;-57
2022/08/13 06:18:48;;;;;;;5.15;3.50;;;;;;;;;;5021778;28;20267;-57
2022/08/13 06:21:16;;;;;;;3.92;3.28;;;;;;;;;;5025321;28;20241;-57
2022/08/13 06:23:45;;;;;;;9.63;4.38;;;;;;;;;;5023662;28;20233;-56
2022/08/13 06:26:12;;;;;;;4.85;4.45;;;;;;;;;;5021433;28;20228;-57
2022/08/13 06:28:41;;;;;;;4.18;3.78;;;;;;;;;;5022715;28;20260;-57
2022/08/13 06:31:08;;;;;;;4.15;3.75;;;;;;;;;;5022735;28;20236;-57
2022/08/13 06:33:35;;;;;;;5.88;4.85;;;;;;;;;;5025641;28;20256;-57
2022/08/13 06:36:04;;;;;;;4.53;3.90;;;;;;;;;;5023325;28;20278;-56
2022/08/13 06:38:31;;;;;;;6.03;4.10;;;;;;;;;;5022735;28;20303;-56
2022/08/13 06:41:00;;;;;;;7.32;4.07;;;;;;;;;;5025820;28;20244;-57
2022/08/13 06:43:28;;;;;;;4.00;3.63;;;;;;;;;;5022871;28;20240;-56
2022/08/13 06:45:56;;;;;;;4.10;3.80;;;;;;;;;;5022385;28;20240;-57
2022/08/13 06:48:22;;;;;;;6.65;4.03;;;;;;;;;;5022997;28;20259;-56
2022/08/13 06:50:50;;;;;;;5.05;4.20;;;;;;;;;;5022825;28;20705;-57
2022/08/13 06:53:17;;;;;;;6.28;3.67;;;;;;;;;;5022592;28;20805;-57
2022/08/13 06:55:44;;;;;;;7.30;4.07;;;;;;;;;;5018977;28;20706;-56
2022/08/13 06:58:11;;;;;;;4.30;4.00;;;;;;;;;;5025715;28;20245;-57
2022/08/13 07:00:39;;;;;;;6.35;3.85;;;;;;;;;;5024659;28;20243;-57
2022/08/13 07:03:07;;;;;;;4.03;3.72;;;;;;;;;;5019345;28;20232;-55
2022/08/13 07:05:35;;;;;;;4.00;3.70;;;;;;;;;;5021393;28;20221;-56
2022/08/13 07:08:04;;;;;;;4.32;3.83;;;;;;;;;;5021791;28;20862;-56
2022/08/13 07:10:31;;;;;;;4.45;4.05;;;;;;;;;;5021746;28;20593;-58
2022/08/13 07:12:59;;;;;;;4.90;3.95;;;;;;;;;;5023047;28;20232;-55
2022/08/13 07:15:26;;;;;;;3.92;3.35;;;;;;;;;;5023508;28;20261;-56
2022/08/13 07:17:53;;;;;;;5.00;3.85;;;;;;;;;;5019634;28;20611;-55
2022/08/13 07:20:21;;;;;;;6.80;4.38;;;;;;;;;;5021149;28;20244;-55
2022/08/13 07:22:48;;;;;;;5.68;3.60;;;;;;;;;;5020255;28;20290;-55
2022/08/13 07:25:14;;;;;;;5.28;4.45;;;;;;;;;;5023863;28;20225;-55
2022/08/13 07:27:43;;;;;;;4.32;3.92;;;;;;;;;;5021268;28;20234;-55
2022/08/13 07:30:14;;;;;;;3.95;3.58;;;;;;;;;;5022156;28;20266;-56
2022/08/13 07:32:41;;;;;;;4.70;3.60;;;;;;;;;;5017974;28;20307;-57
2022/08/13 07:35:08;;;;;;;3.95;3.65;;;;;;;;;;5020930;28;20236;-56
2022/08/13 07:37:36;;;;;;;4.32;3.42;;;;;;;;;;5021956;28;20233;-56
2022/08/13 07:40:03;;;;;;;5.50;3.97;;;;;;;;;;5020030;28;20236;-56
2022/08/13 07:42:31;;;;;;;5.28;4.00;;;;;;;;;;5021344;28;20231;-56
2022/08/13 07:44:58;;;;;;;4.57;4.18;;;;;;;;;;5019952;28;20228;-56
2022/08/13 07:47:24;;;;;;;5.50;4.15;;;;;;;;;;5024290;28;20235;-55
2022/08/13 07:49:51;;;;;;;4.38;3.85;;;;;;;;;;5019865;28;20241;-56
2022/08/13 07:52:17;;;;;;;4.35;3.95;;;;;;;;;;5016988;28;20756;-57
2022/08/13 07:54:45;;;;;;;4.30;3.90;;;;;;;;;;5018466;28;20730;-57
2022/08/13 07:57:11;;;;;;;4.78;3.80;;;;;;;;;;5015186;28;20240;-55
2022/08/13 07:59:38;;;;;;;4.18;3.88;;;;;;;;;;5014129;28;20320;-56
2022/08/13 08:02:05;;;;;;;4.25;3.85;;;;;;;;;;5019590;28;20229;-56
2022/08/13 08:04:34;;;;;;;4.03;3.55;;;;;;;;;;5012673;28;20283;-55
2022/08/13 08:07:01;;;;;;;4.72;3.63;;;;;;;;;;5016131;28;20228;-55
2022/08/13 08:09:29;;;;;;;4.93;4.53;;;;;;;;;;5014964;28;20236;-56
2022/08/13 08:14:41;;;;;;;8.60;4.15;;;;;;;;;;5017725;28;20239;-56
2022/08/13 08:17:10;;;;;;;5.15;3.63;;;;;;;;;;5017208;28;20241;-56
2022/08/13 08:19:38;;;;;;;4.85;3.97;;;;;;;;;;5019723;28;20240;-56
2022/08/13 08:22:06;;;;;;;4.25;3.95;;;;;;;;;;5015523;28;20814;-56
2022/08/13 08:24:33;;;;;;;6.82;3.90;;;;;;;;;;5018955;28;20726;-56
2022/08/13 08:27:02;;;;;;;5.30;4.40;;;;;;;;;;5017259;28;20258;-57
2022/08/13 08:29:28;;;;;;;3.55;3.25;;;;;;;;;;5016785;28;20794;-56
2022/08/13 08:31:55;;;;;;;4.15;3.78;;;;;;;;;;5018476;28;20228;-56
2022/08/13 08:34:21;;;;;;;4.32;3.92;;;;;;;;;;5018811;28;20252;-56
2022/08/13 08:36:47;;;;;;;3.65;3.35;;;;;;;;;;5016005;28;20730;-56
2022/08/13 08:44:44;;;;;;;3.90;3.50;;;;;;;;;;5016319;28;20258;-57
2022/08/13 08:47:11;;;;;;;4.20;3.80;;;;;;;;;;5012446;28;20237;-56
2022/08/13 08:49:37;;;;;;;4.13;3.72;;;;;;;;;;5014964;28;20244;-57
2022/08/13 08:52:04;;;;;;;14.35;4.32;;;;;;;;;;5019042;28;20240;-57
2022/08/13 08:54:31;;;;;;;6.07;4.00;;;;;;;;;;5014343;28;20247;-55
2022/08/13 08:56:57;;;;;;;4.47;3.65;;;;;;;;;;5016176;28;20710;-55
2022/08/13 08:59:24;;;;;;;4.03;3.70;;;;;;;;;;5016262;28;20780;-55
2022/08/13 09:01:55;;;;;;;4.05;3.75;;;;;;;;;;5022766;28;20229;-57
2022/08/13 09:04:22;;;;;;;4.25;3.90;;;;;;;;;;5023323;28;20781;-55
2022/08/13 09:06:49;;;;;;;4.20;3.80;;;;;;;;;;5017886;28;20240;-56
2022/08/13 09:09:16;;;;;;;6.13;3.40;;;;;;;;;;5018420;28;20233;-56
2022/08/13 09:11:43;;;;;;;4.00;3.70;;;;;;;;;;5013573;28;20232;-57
2022/08/13 09:14:10;;;;;;;4.47;4.07;;;;;;;;;;5016518;28;20236;-56
2022/08/13 09:16:37;;;;;;;3.90;3.60;;;;;;;;;;5016578;28;20247;-57
2022/08/13 09:19:06;;;;;;;3.72;3.42;;;;;;;;;;5017858;28;20267;-56
2022/08/13 09:21:32;;;;;;;4.78;3.88;;;;;;;;;;5016123;28;20714;-56
2022/08/13 09:24:01;;;;;;;6.78;4.00;;;;;;;;;;5020541;28;20584;-56
2022/08/13 09:26:27;;;;;;;5.72;5.18;;;;;;;;;;5016063;28;20476;-57
2022/08/13 09:28:56;;;;;;;5.85;5.35;;;;;;;;;;5020713;28;20233;-56
2022/08/13 09:31:23;;;;;;;4.80;4.40;;;;;;;;;;5012354;28;20327;-57
2022/08/13 09:33:53;;;;;;;6.05;4.93;;;;;;;;;;5018365;28;20312;-56
2022/08/13 09:36:22;;;;;;;8.73;5.03;;;;;;;;;;5006749;28;20289;-56
2022/08/13 09:38:49;;;;;;;6.45;5.22;;;;;;;;;;5019112;28;20228;-58
2022/08/13 09:41:20;;;;;;;7.28;5.55;;;;;;;;;;5017075;28;20241;-55
2022/08/13 09:43:49;;;;;;;5.57;5.18;;;;;;;;;;5016019;28;20235;-57
2022/08/13 09:46:16;;;;;;;5.88;5.38;;;;;;;;;;5013562;28;20631;-55
2022/08/13 09:48:44;;;;;;;8.10;6.20;;;;;;;;;;5016032;28;20664;-60
2022/08/13 09:51:13;;;;;;;5.85;5.35;;;;;;;;;;5015388;28;20232;-55
2022/08/13 09:53:41;;;;;;;5.65;5.18;;;;;;;;;;5017472;28;20228;-56
2022/08/13 09:56:08;;;;;;;7.25;6.05;;;;;;;;;;5020702;28;20581;-55
2022/08/13 09:58:35;;;;;;;7.95;5.82;;;;;;;;;;5023088;28;20252;-56
2022/08/13 10:01:01;;;;;;;5.55;5.05;;;;;;;;;;5022668;28;20236;-56
2022/08/13 10:03:27;;;;;;;6.00;5.50;;;;;;;;;;5018243;28;20239;-56
2022/08/13 10:05:54;;;;;;;7.90;5.43;;;;;;;;;;5016903;28;20233;-54
2022/08/13 10:08:20;;;;;;;5.65;5.15;;;;;;;;;;5023979;28;20240;-55
2022/08/13 10:10:48;;;;;;;5.95;5.45;;;;;;;;;;5026413;28;20614;-56
2022/08/13 10:13:15;;;;;;;5.95;5.32;;;;;;;;;;5027160;28;20240;-56
2022/08/13 10:15:41;;;;;;;5.88;5.30;;;;;;;;;;5023924;28;20232;-55
2022/08/13 10:18:08;;;;;;;6.32;5.70;;;;;;;;;;5025869;28;20244;-56
2022/08/13 10:20:36;;;;;;;12.32;5.18;;;;;;;;;;5025544;28;20719;-55
2022/08/13 10:23:03;;;;;;;5.93;5.43;;;;;;;;;;5025079;28;20324;-56
2022/08/13 10:25:30;;;;;;;6.10;5.28;;;;;;;;;;5025001;28;20240;-56
2022/08/13 10:27:58;;;;;;;5.43;4.95;;;;;;;;;;5025496;28;20252;-55
2022/08/13 10:30:25;;;;;;;9.75;5.10;;;;;;;;;;5021533;28;20241;-54
2022/08/13 10:32:54;;;;;;;10.52;5.50;;;;;;;;;;5024871;28;20792;-55
2022/08/13 10:35:20;;;;;;;5.22;4.72;;;;;;;;;;5010762;28;20239;-57
2022/08/13 10:37:49;;;;;;;5.85;5.35;;;;;;;;;;5010189;28;20343;-56
2022/08/13 10:40:15;;;;;;;5.82;5.20;;;;;;;;;;5015738;28;20252;-54
2022/08/13 10:42:44;;;;;;;5.80;5.30;;;;;;;;;;5011064;28;20601;-56
2022/08/13 10:45:13;;;;;;;6.63;5.85;;;;;;;;;;5010420;28;20244;-56
2022/08/13 10:47:44;;;;;;;5.07;4.60;;;;;;;;;;5000355;28;20241;-54
2022/08/13 10:50:11;;;;;;;5.97;5.07;;;;;;;;;;5020186;22;20236;-57
2022/08/13 10:52:37;;;;;;;5.88;5.28;;;;;;;;;;5011359;28;20240;-56
2022/08/13 10:55:05;;;;;;;7.00;5.00;;;;;;;;;;5014029;28;20228;-56
2022/08/13 10:57:31;;;;;;;5.70;5.13;;;;;;;;;;5011207;28;20244;-58
2022/08/13 10:59:57;;;;;;;6.60;5.38;;;;;;;;;;5012794;28;20259;-54
2022/08/13 11:02:26;;;;;;;5.47;4.93;;;;;;;;;;5010555;28;20237;-57
2022/08/13 11:04:52;;;;;;;5.25;4.60;;;;;;;;;;5020503;28;20243;-56
2022/08/13 11:07:20;;;;;;;5.68;5.15;;;;;;;;;;5012043;28;20318;-56
2022/08/13 11:09:46;;;;;;;5.45;4.22;;;;;;;;;;5016548;28;20602;-55
2022/08/13 11:12:12;;;;;;;4.72;4.20;;;;;;;;;;5015390;28;20631;-56
2022/08/13 11:14:41;;;;;;;5.25;4.53;;;;;;;;;;5014042;28;20640;-56
2022/08/13 11:17:09;;;;;;;5.25;4.85;;;;;;;;;;5017562;28;20253;-56
2022/08/13 11:19:40;;;;;;;5.57;4.32;;;;;;;;;;5019097;28;20313;-56
2022/08/13 11:22:07;;;;;;;6.15;4.25;;;;;;;;;;5019984;28;20741;-56
2022/08/13 11:24:33;;;;;;;5.40;4.90;;;;;;;;;;5019158;28;20231;-55
2022/08/13 11:26:59;;;;;;;6.38;5.05;;;;;;;;;;5019763;28;20247;-56
2022/08/13 11:29:26;;;;;;;5.15;4.28;;;;;;;;;;5016176;28;20236;-54
2022/08/13 11:31:52;;;;;;;5.60;5.10;;;;;;;;;;5019688;28;20232;-55
2022/08/13 11:34:18;;;;;;;5.10;4.70;;;;;;;;;;5020167;28;20232;-55
2022/08/13 11:36:46;;;;;;;5.65;4.75;;;;;;;;;;5017438;28;20228;-55
2022/08/13 11:39:12;;;;;;;5.00;4.50;;;;;;;;;;5019058;28;20315;-55
2022/08/13 11:41:39;;;;;;;5.68;4.85;;;;;;;;;;5018548;28;20243;-54
2022/08/13 11:44:05;;;;;;;4.90;4.50;;;;;;;;;;5016129;28;20244;-58
2022/08/13 11:46:31;;;;;;;5.15;4.63;;;;;;;;;;5016602;28;20272;-55
2022/08/13 11:48:58;;;;;;;5.82;5.25;;;;;;;;;;5020121;28;20237;-56
2022/08/13 11:51:24;;;;;;;7.03;4.82;;;;;;;;;;5020247;28;20239;-56
2022/08/13 11:53:52;;;;;;;5.60;5.18;;;;;;;;;;5021940;28;20233;-56
2022/08/13 11:56:18;;;;;;;5.65;5.15;;;;;;;;;;5014131;28;20738;-56
2022/08/13 11:58:44;;;;;;;4.68;4.38;;;;;;;;;;5019549;28;20232;-57
2022/08/13 12:01:11;;;;;;;5.20;4.80;;;;;;;;;;5016394;28;20335;-56
2022/08/13 12:03:39;;;;;;;5.85;5.35;;;;;;;;;;5019176;28;21309;-56
2022/08/13 12:06:06;;;;;;;7.47;5.03;;;;;;;;;;5016741;28;20332;-58
2022/08/13 12:08:32;;;;;;;6.40;5.07;;;;;;;;;;5019608;28;20233;-55
2022/08/13 12:11:00;;;;;;;5.57;5.18;;;;;;;;;;5018197;28;20240;-56
2022/08/13 12:13:26;;;;;;;7.25;4.63;;;;;;;;;;5019227;28;20236;-57
2022/08/13 12:15:52;;;;;;;6.25;5.65;;;;;;;;;;5018261;28;20236;-54
2022/08/13 12:18:19;;;;;;;5.63;5.20;;;;;;;;;;5017318;28;20770;-56
2022/08/13 12:20:46;;;;;;;5.13;4.72;;;;;;;;;;5019326;28;20262;-56
2022/08/13 12:23:12;;;;;;;5.20;4.80;;;;;;;;;;5019724;28;20233;-56
2022/08/13 12:25:39;;;;;;;5.05;4.65;;;;;;;;;;5017780;28;20605;-57
2022/08/13 12:28:11;;;;;;;6.00;5.50;;;;;;;;;;5021112;28;20243;-57
2022/08/13 12:30:37;;;;;;;4.97;4.60;;;;;;;;;;5018834;28;20232;-57
2022/08/13 12:33:04;;;;;;;5.50;5.10;;;;;;;;;;5020773;28;20247;-57
2022/08/13 12:35:30;;;;;;;5.65;5.10;;;;;;;;;;5017095;28;20240;-56
2022/08/13 12:37:56;;;;;;;5.22;4.82;;;;;;;;;;5018174;28;20239;-57
2022/08/13 12:40:23;;;;;;;5.35;4.95;;;;;;;;;;5010812;28;20239;-55
2022/08/13 12:42:49;;;;;;;5.35;4.85;;;;;;;;;;5012356;28;20621;-57
2022/08/13 12:45:17;;;;;;;7.18;5.57;;;;;;;;;;5017502;28;20228;-56
2022/08/13 12:47:44;;;;;;;4.60;4.30;;;;;;;;;;5018156;28;20251;-55
2022/08/13 12:50:11;;;;;;;4.78;4.38;;;;;;;;;;5014872;28;20248;-56
2022/08/13 12:52:37;;;;;;;6.13;5.22;;;;;;;;;;5022402;28;20262;-55
2022/08/13 12:55:04;;;;;;;5.18;4.65;;;;;;;;;;5024200;28;20247;-55
2022/08/13 12:57:30;;;;;;;6.45;5.78;;;;;;;;;;5017197;28;20730;-57
2022/08/13 12:59:57;;;;;;;6.95;5.10;;;;;;;;;;5021496;28;20852;-56
2022/08/13 13:02:25;;;;;;;7.53;5.05;;;;;;;;;;5023779;28;20236;-56
2022/08/13 13:04:51;;;;;;;5.80;5.18;;;;;;;;;;5022639;28;20298;-55
2022/08/13 13:07:18;;;;;;;5.40;4.97;;;;;;;;;;5022665;28;20287;-56
2022/08/13 13:09:44;;;;;;;4.95;4.53;;;;;;;;;;5021869;28;20351;-57
2022/08/13 13:12:10;;;;;;;5.53;5.05;;;;;;;;;;5021578;28;20595;-57
2022/08/13 13:14:37;;;;;;;8.88;5.10;;;;;;;;;;5019044;28;20753;-57
2022/08/13 13:17:03;;;;;;;5.00;4.60;;;;;;;;;;5020736;28;20862;-58
2022/08/13 13:19:31;;;;;;;5.88;5.22;;;;;;;;;;5022200;28;20251;-56
2022/08/13 13:21:57;;;;;;;5.80;5.40;;;;;;;;;;5023540;28;20243;-56
2022/08/13 13:24:25;;;;;;;5.57;5.07;;;;;;;;;;5019252;28;20232;-57
2022/08/13 13:26:52;;;;;;;4.68;4.28;;;;;;;;;;5022275;28;20243;-57
2022/08/13 13:29:18;;;;;;;5.63;5.10;;;;;;;;;;5020677;28;20244;-55
2022/08/13 13:31:44;;;;;;;5.30;4.85;;;;;;;;;;5022918;28;20235;-55
2022/08/13 13:34:10;;;;;;;7.57;5.00;;;;;;;;;;5021509;28;20232;-57
2022/08/13 13:36:38;;;;;;;9.00;4.80;;;;;;;;;;5015879;28;20236;-56
2022/08/13 13:39:05;;;;;;;6.10;4.75;;;;;;;;;;5020662;28;20232;-56
2022/08/13 13:41:31;;;;;;;4.28;3.85;;;;;;;;;;5019032;28;20594;-57
2022/08/13 13:43:57;;;;;;;4.32;3.90;;;;;;;;;;5023742;28;20236;-56
2022/08/13 13:46:23;;;;;;;4.00;3.70;;;;;;;;;;5016730;28;20691;-56
2022/08/13 13:48:50;;;;;;;3.92;3.63;;;;;;;;;;5022757;28;20244;-56
2022/08/13 13:51:16;;;;;;;4.05;3.78;;;;;;;;;;5019878;28;20235;-56
2022/08/13 13:53:44;;;;;;;3.80;3.45;;;;;;;;;;5018126;28;20311;-55
2022/08/13 13:56:12;;;;;;;4.18;3.78;;;;;;;;;;5023644;28;20746;-57
2022/08/13 13:58:38;;;;;;;4.07;3.75;;;;;;;;;;5021493;28;20721;-56
2022/08/13 14:01:06;;;;;;;4.60;4.20;;;;;;;;;;5021117;28;20739;-57
2022/08/13 14:03:32;;;;;;;4.43;3.80;;;;;;;;;;5018531;28;20672;-57
2022/08/13 14:05:59;;;;;;;4.32;4.03;;;;;;;;;;5019961;28;20263;-57
2022/08/13 14:08:28;;;;;;;4.00;3.53;;;;;;;;;;5019148;28;20242;-56
2022/08/13 14:10:56;;;;;;;3.90;3.60;;;;;;;;;;5022001;28;20240;-55
2022/08/13 14:13:22;;;;;;;4.28;3.88;;;;;;;;;;5019690;28;20608;-54
2022/08/13 14:15:49;;;;;;;5.63;4.18;;;;;;;;;;5019641;28;20236;-56
2022/08/13 14:18:16;;;;;;;4.03;3.72;;;;;;;;;;5019853;28;20240;-55
2022/08/13 14:20:43;;;;;;;9.13;4.15;;;;;;;;;;5020623;28;20237;-55
2022/08/13 14:23:11;;;;;;;5.20;4.43;;;;;;;;;;5021461;28;20232;-55
2022/08/13 14:25:38;;;;;;;4.60;4.20;;;;;;;;;;5018622;28;20236;-56
2022/08/13 14:28:08;;;;;;;3.95;3.60;;;;;;;;;;5023336;28;20245;-56
2022/08/13 14:30:34;;;;;;;5.95;4.40;;;;;;;;;;5016307;28;20267;-56
2022/08/13 14:33:01;;;;;;;6.25;3.97;;;;;;;;;;5022485;28;20248;-54
2022/08/13 14:35:28;;;;;;;3.90;3.60;;;;;;;;;;5019242;28;20232;-56
2022/08/13 14:37:54;;;;;;;4.57;4.28;;;;;;;;;;5017547;28;20640;-57
2022/08/13 14:40:21;;;;;;;5.25;4.75;;;;;;;;;;5021615;28;20661;-56
2022/08/13 14:42:49;;;;;;;4.55;4.15;;;;;;;;;;5020133;28;20233;-56
2022/08/13 14:48:02;;;;;;;10.05;5.13;;;;;;;;;;5020470;28;20239;-57
2022/08/13 14:50:29;;;;;;;5.28;4.88;;;;;;;;;;5016427;28;20618;-57
2022/08/13 14:52:57;;;;;;;5.18;4.72;;;;;;;;;;5016754;28;20309;-56
2022/08/13 14:55:23;;;;;;;5.57;5.13;;;;;;;;;;5020962;28;20483;-55
2022/08/13 14:57:50;;;;;;;5.75;4.47;;;;;;;;;;5020188;28;20247;-57
2022/08/13 15:00:18;;;;;;;5.28;4.78;;;;;;;;;;5020055;28;20232;-57
2022/08/13 15:02:45;;;;;;;7.95;4.82;;;;;;;;;;5022727;28;20236;-57